This is the latest recevied weather packets stored in our database for station/object KJ5BMY-13. If no packets are shown the sender has not sent any weather packets the latest 10 day(s).
| Time | Temp. | Humidity | Pressure | Rain* | Wind** | Luminosity | Snow |
|---|---|---|---|---|---|---|---|
| 1778032477 | 23.33° C | 69% | 1008.4 hPa | 0 mm | - | - | - |
| 1778032174 | 23.33° C | 68% | 1008.5 hPa | 0 mm | - | - | - |
| 1778031567 | 23.89° C | 67% | 1007.9 hPa | 0 mm | - | - | - |
| 1778031265 | 23.89° C | 67% | 1007.7 hPa | 0 mm | - | - | - |
| 1778030961 | 23.89° C | 66% | 1008 hPa | 0 mm | - | - | - |
| 1778030658 | 23.89° C | 65% | 1007.9 hPa | 0 mm | - | - | - |
| 1778030355 | 23.89° C | 66% | 1008.2 hPa | 0 mm | - | - | - |
| 1778030052 | 24.44° C | 67% | 1007.9 hPa | 0 mm | - | - | - |
| 1778029448 | 24.44° C | 68% | 1007.7 hPa | 0 mm | - | - | - |
| 1778027627 | 26.67° C | 63% | 1007.2 hPa | 0 mm | - | - | - |
| 1778023991 | 29.44° C | 53% | 1006.5 hPa | 0 mm | - | - | - |
| 1778023688 | 30° C | 67% | 1006.4 hPa | 0 mm | - | - | - |
| 1778021569 | 31.11° C | 62% | 1005.8 hPa | 0 mm | - | - | - |
| 1778020658 | 32.22° C | 56% | 1005.8 hPa | 0 mm | - | - | - |
| 1778020051 | 32.22° C | 52% | 1005.6 hPa | 0 mm | - | - | - |
| 1778019747 | 32.22° C | 53% | 1005.4 hPa | 0 mm | - | - | - |
| 1778019444 | 32.22° C | 53% | 1005.3 hPa | 0 mm | - | - | - |
| 1778018838 | 33.33° C | 51% | 1005.4 hPa | 0 mm | - | - | - |
| 1778018536 | 34.44° C | 49% | 1005.6 hPa | 0 mm | - | - | - |
| 1778017931 | 34.44° C | 49% | 1005.7 hPa | 0 mm | - | - | - |
| 1778016416 | 33.33° C | 51% | 1005.9 hPa | 0 mm | - | - | - |
| 1778015510 | 33.33° C | 51% | 1006 hPa | 0 mm | - | - | - |
| 1778014901 | 33.33° C | 52% | 1006.1 hPa | 0 mm | - | - | - |
| 1778014297 | 32.78° C | 54% | 1006.2 hPa | 0 mm | - | - | - |
| 1778013388 | 32.22° C | 54% | 1006.5 hPa | 0 mm | - | - | - |
* Rain latest hour (hover to see other rain measurements)
** Current wind speed in m/s (hover to see current wind gust speed)